Terminal Aerodrome Forecast
Issued by NWS Pittsburgh, PA

Current Version | Previous Version | Graphics & Text | Print | Product List | Glossary On
Versions: 1 2 3 4 5 6 7 8 9 10 11 12 13 14 15 16 17 18 19 20 21 22 23 24 25 26 27 28 29 30 31 32 33 34
000
FTUS41 KPBZ 211400 AAA
TAFPIT
TAF AMD
KPIT 211428Z 2114/2218 22008KT P6SM BKN012
     FM211600 24010KT P6SM BKN050
     FM211900 25009KT P6SM VCTS BKN040CB
     FM220200 VRB04KT P6SM SCT040
     FM220800 VRB03KT 6SM BR SCT040 BKN080
     FM221400 23004KT P6SM BKN040=

USA.gov is the U.S. government's official web portal to all federal, state and local government web resources and services.